Terminal Aerodrome Forecast
Issued by NWS Oklahoma City, OK

Home | Current Version | Previous Version | Text Only | Print | Product List | Glossary On
Versions: 1 2 3 4 5 6 7 8 9 10 11 12
000
FTUS44 KOUN 260528
TAFOUN
TAF
KOUN 260528Z 2606/2706 07008KT P6SM VCTS SCT025 OVC060CB
      TEMPO 2606/2608 3SM TSRA BR OVC025CB
     FM260900 09005KT P6SM BKN040 BKN100
     FM261800 VRB05KT P6SM BKN060 BKN100
     FM270000 11009KT P6SM BKN050=

USA.gov is the U.S. government's official web portal to all federal, state and local government web resources and services.